sensor_id;sensor_type;location;lat;lon;timestamp;P1;durP1;ratioP1;P2;durP2;ratioP2
40609;SDS011;26316;55.976;37.140;2023-11-21T00:00:13;8.25;;;5.70;;
40609;SDS011;26316;55.976;37.140;2023-11-21T00:02:40;5.10;;;4.60;;
40609;SDS011;26316;55.976;37.140;2023-11-21T00:05:10;6.90;;;5.28;;
40609;SDS011;26316;55.976;37.140;2023-11-21T00:07:37;7.28;;;4.82;;
40609;SDS011;26316;55.976;37.140;2023-11-21T00:10:03;6.15;;;5.30;;
40609;SDS011;26316;55.976;37.140;2023-11-21T00:12:30;5.75;;;5.15;;
40609;SDS011;26316;55.976;37.140;2023-11-21T00:14:57;4.80;;;4.28;;
40609;SDS011;26316;55.976;37.140;2023-11-21T00:17:23;6.60;;;4.45;;
40609;SDS011;26316;55.976;37.140;2023-11-21T00:19:49;6.93;;;4.38;;
40609;SDS011;26316;55.976;37.140;2023-11-21T00:22:17;5.85;;;4.43;;
40609;SDS011;26316;55.976;37.140;2023-11-21T00:24:43;4.97;;;4.30;;
40609;SDS011;26316;55.976;37.140;2023-11-21T00:27:09;4.90;;;4.25;;
40609;SDS011;26316;55.976;37.140;2023-11-21T00:29:35;5.93;;;4.22;;
40609;SDS011;26316;55.976;37.140;2023-11-21T00:32:01;6.03;;;4.55;;
40609;SDS011;26316;55.976;37.140;2023-11-21T00:34:27;4.40;;;4.00;;
40609;SDS011;26316;55.976;37.140;2023-11-21T00:36:53;5.47;;;4.00;;
40609;SDS011;26316;55.976;37.140;2023-11-21T00:39:20;4.93;;;4.35;;
40609;SDS011;26316;55.976;37.140;2023-11-21T00:41:45;4.63;;;4.22;;
40609;SDS011;26316;55.976;37.140;2023-11-21T00:44:12;5.10;;;4.28;;
40609;SDS011;26316;55.976;37.140;2023-11-21T00:46:37;6.50;;;4.60;;
40609;SDS011;26316;55.976;37.140;2023-11-21T00:49:03;4.55;;;3.85;;
40609;SDS011;26316;55.976;37.140;2023-11-21T00:51:29;5.65;;;4.70;;
40609;SDS011;26316;55.976;37.140;2023-11-21T00:53:55;5.30;;;4.80;;
40609;SDS011;26316;55.976;37.140;2023-11-21T00:56:21;6.53;;;4.80;;
40609;SDS011;26316;55.976;37.140;2023-11-21T00:58:47;5.63;;;4.70;;
40609;SDS011;26316;55.976;37.140;2023-11-21T01:01:15;7.93;;;4.93;;
40609;SDS011;26316;55.976;37.140;2023-11-21T01:03:41;6.32;;;4.82;;
40609;SDS011;26316;55.976;37.140;2023-11-21T01:06:07;6.10;;;4.50;;
40609;SDS011;26316;55.976;37.140;2023-11-21T01:08:34;9.52;;;4.78;;
40609;SDS011;26316;55.976;37.140;2023-11-21T01:11:01;7.32;;;5.07;;
40609;SDS011;26316;55.976;37.140;2023-11-21T01:13:27;9.60;;;4.60;;
40609;SDS011;26316;55.976;37.140;2023-11-21T01:15:53;4.93;;;4.20;;
40609;SDS011;26316;55.976;37.140;2023-11-21T01:18:19;6.80;;;4.82;;
40609;SDS011;26316;55.976;37.140;2023-11-21T01:20:45;8.25;;;4.80;;
40609;SDS011;26316;55.976;37.140;2023-11-21T01:23:12;6.75;;;4.75;;
40609;SDS011;26316;55.976;37.140;2023-11-21T01:25:38;8.43;;;4.57;;
40609;SDS011;26316;55.976;37.140;2023-11-21T01:28:04;4.63;;;4.10;;
40609;SDS011;26316;55.976;37.140;2023-11-21T01:30:30;6.50;;;4.47;;
40609;SDS011;26316;55.976;37.140;2023-11-21T01:32:57;4.60;;;4.10;;
40609;SDS011;26316;55.976;37.140;2023-11-21T01:35:23;4.75;;;4.13;;
40609;SDS011;26316;55.976;37.140;2023-11-21T01:37:49;6.68;;;4.88;;
40609;SDS011;26316;55.976;37.140;2023-11-21T01:40:15;7.22;;;5.35;;
40609;SDS011;26316;55.976;37.140;2023-11-21T01:42:41;8.05;;;4.95;;
40609;SDS011;26316;55.976;37.140;2023-11-21T01:45:09;7.18;;;4.68;;
40609;SDS011;26316;55.976;37.140;2023-11-21T01:47:35;4.68;;;4.28;;
40609;SDS011;26316;55.976;37.140;2023-11-21T01:50:02;5.07;;;4.47;;
40609;SDS011;26316;55.976;37.140;2023-11-21T01:52:30;4.55;;;4.05;;
40609;SDS011;26316;55.976;37.140;2023-11-21T01:54:56;4.70;;;3.70;;
40609;SDS011;26316;55.976;37.140;2023-11-21T01:57:23;4.97;;;4.40;;
40609;SDS011;26316;55.976;37.140;2023-11-21T01:59:49;8.35;;;4.13;;
40609;SDS011;26316;55.976;37.140;2023-11-21T02:02:15;4.18;;;3.47;;
40609;SDS011;26316;55.976;37.140;2023-11-21T02:04:41;5.78;;;3.58;;
40609;SDS011;26316;55.976;37.140;2023-11-21T02:07:06;5.35;;;4.75;;
40609;SDS011;26316;55.976;37.140;2023-11-21T02:09:32;5.10;;;4.60;;
40609;SDS011;26316;55.976;37.140;2023-11-21T02:11:59;4.70;;;4.30;;
40609;SDS011;26316;55.976;37.140;2023-11-21T02:14:26;4.85;;;4.38;;
40609;SDS011;26316;55.976;37.140;2023-11-21T02:16:56;6.03;;;4.30;;
40609;SDS011;26316;55.976;37.140;2023-11-21T02:19:26;5.10;;;4.03;;
40609;SDS011;26316;55.976;37.140;2023-11-21T02:21:52;6.00;;;4.28;;
40609;SDS011;26316;55.976;37.140;2023-11-21T02:24:21;4.97;;;4.30;;
40609;SDS011;26316;55.976;37.140;2023-11-21T02:26:48;6.95;;;4.03;;
40609;SDS011;26316;55.976;37.140;2023-11-21T02:29:20;5.68;;;4.57;;
40609;SDS011;26316;55.976;37.140;2023-11-21T02:31:53;4.72;;;3.78;;
40609;SDS011;26316;55.976;37.140;2023-11-21T02:34:21;5.10;;;4.55;;
40609;SDS011;26316;55.976;37.140;2023-11-21T02:36:47;4.93;;;4.47;;
40609;SDS011;26316;55.976;37.140;2023-11-21T02:39:14;6.15;;;4.53;;
40609;SDS011;26316;55.976;37.140;2023-11-21T02:41:42;5.65;;;4.50;;
40609;SDS011;26316;55.976;37.140;2023-11-21T02:44:08;6.75;;;4.68;;
40609;SDS011;26316;55.976;37.140;2023-11-21T02:46:35;5.15;;;4.50;;
40609;SDS011;26316;55.976;37.140;2023-11-21T02:49:04;6.10;;;4.15;;
40609;SDS011;26316;55.976;37.140;2023-11-21T02:51:34;5.30;;;4.70;;
40609;SDS011;26316;55.976;37.140;2023-11-21T02:54:00;5.90;;;4.38;;
40609;SDS011;26316;55.976;37.140;2023-11-21T02:56:28;4.43;;;4.00;;
40609;SDS011;26316;55.976;37.140;2023-11-21T02:58:55;5.30;;;4.80;;
40609;SDS011;26316;55.976;37.140;2023-11-21T03:01:21;4.55;;;3.63;;
40609;SDS011;26316;55.976;37.140;2023-11-21T03:03:49;5.28;;;4.78;;
40609;SDS011;26316;55.976;37.140;2023-11-21T03:06:17;8.20;;;5.28;;
40609;SDS011;26316;55.976;37.140;2023-11-21T03:08:46;5.60;;;5.03;;
40609;SDS011;26316;55.976;37.140;2023-11-21T03:11:12;10.95;;;4.70;;
40609;SDS011;26316;55.976;37.140;2023-11-21T03:13:41;6.00;;;4.88;;
40609;SDS011;26316;55.976;37.140;2023-11-21T03:16:10;5.67;;;4.23;;
40609;SDS011;26316;55.976;37.140;2023-11-21T03:21:03;10.07;;;5.00;;
40609;SDS011;26316;55.976;37.140;2023-11-21T03:23:30;5.43;;;4.80;;
40609;SDS011;26316;55.976;37.140;2023-11-21T03:25:56;9.48;;;5.28;;
40609;SDS011;26316;55.976;37.140;2023-11-21T03:28:22;8.48;;;5.03;;
40609;SDS011;26316;55.976;37.140;2023-11-21T03:30:48;6.05;;;4.88;;
40609;SDS011;26316;55.976;37.140;2023-11-21T03:33:14;6.90;;;3.15;;
40609;SDS011;26316;55.976;37.140;2023-11-21T03:35:40;6.22;;;4.45;;
40609;SDS011;26316;55.976;37.140;2023-11-21T03:38:07;6.63;;;4.80;;
40609;SDS011;26316;55.976;37.140;2023-11-21T03:40:33;9.93;;;4.68;;
40609;SDS011;26316;55.976;37.140;2023-11-21T03:43:00;6.38;;;2.88;;
40609;SDS011;26316;55.976;37.140;2023-11-21T03:45:26;4.90;;;4.40;;
40609;SDS011;26316;55.976;37.140;2023-11-21T03:47:51;5.35;;;4.65;;
40609;SDS011;26316;55.976;37.140;2023-11-21T03:50:17;5.30;;;4.05;;
40609;SDS011;26316;55.976;37.140;2023-11-21T03:52:43;4.82;;;4.00;;
40609;SDS011;26316;55.976;37.140;2023-11-21T03:55:09;5.38;;;3.92;;
40609;SDS011;26316;55.976;37.140;2023-11-21T03:57:36;5.93;;;3.95;;
40609;SDS011;26316;55.976;37.140;2023-11-21T04:00:03;4.53;;;4.10;;
40609;SDS011;26316;55.976;37.140;2023-11-21T04:02:37;10.35;;;4.28;;
40609;SDS011;26316;55.976;37.140;2023-11-21T04:05:03;8.50;;;4.43;;
40609;SDS011;26316;55.976;37.140;2023-11-21T04:07:30;5.50;;;4.25;;
40609;SDS011;26316;55.976;37.140;2023-11-21T04:09:55;5.50;;;2.28;;
40609;SDS011;26316;55.976;37.140;2023-11-21T04:12:22;6.05;;;3.53;;
40609;SDS011;26316;55.976;37.140;2023-11-21T04:14:47;4.07;;;3.40;;
40609;SDS011;26316;55.976;37.140;2023-11-21T04:17:13;3.60;;;3.30;;
40609;SDS011;26316;55.976;37.140;2023-11-21T04:19:39;4.03;;;3.13;;
40609;SDS011;26316;55.976;37.140;2023-11-21T04:22:04;4.47;;;3.53;;
40609;SDS011;26316;55.976;37.140;2023-11-21T04:24:30;4.13;;;3.42;;
40609;SDS011;26316;55.976;37.140;2023-11-21T04:26:56;3.67;;;3.13;;
40609;SDS011;26316;55.976;37.140;2023-11-21T04:29:21;5.15;;;3.50;;
40609;SDS011;26316;55.976;37.140;2023-11-21T04:31:48;5.47;;;3.08;;
40609;SDS011;26316;55.976;37.140;2023-11-21T04:34:14;3.92;;;3.47;;
40609;SDS011;26316;55.976;37.140;2023-11-21T04:36:40;4.07;;;3.33;;
40609;SDS011;26316;55.976;37.140;2023-11-21T04:39:06;3.58;;;3.22;;
40609;SDS011;26316;55.976;37.140;2023-11-21T04:41:32;5.78;;;3.35;;
40609;SDS011;26316;55.976;37.140;2023-11-21T04:43:58;4.78;;;3.33;;
40609;SDS011;26316;55.976;37.140;2023-11-21T04:46:26;5.28;;;3.65;;
40609;SDS011;26316;55.976;37.140;2023-11-21T04:48:51;4.32;;;3.10;;
40609;SDS011;26316;55.976;37.140;2023-11-21T04:51:17;4.80;;;3.60;;
40609;SDS011;26316;55.976;37.140;2023-11-21T04:53:43;4.22;;;3.80;;
40609;SDS011;26316;55.976;37.140;2023-11-21T04:56:09;4.07;;;3.65;;
40609;SDS011;26316;55.976;37.140;2023-11-21T04:58:34;4.97;;;3.95;;
40609;SDS011;26316;55.976;37.140;2023-11-21T05:01:01;6.10;;;3.85;;
40609;SDS011;26316;55.976;37.140;2023-11-21T05:03:26;3.65;;;3.35;;
40609;SDS011;26316;55.976;37.140;2023-11-21T05:05:55;5.95;;;3.78;;
40609;SDS011;26316;55.976;37.140;2023-11-21T05:08:21;3.85;;;3.53;;
40609;SDS011;26316;55.976;37.140;2023-11-21T05:10:47;4.07;;;3.63;;
40609;SDS011;26316;55.976;37.140;2023-11-21T05:13:14;4.32;;;3.78;;
40609;SDS011;26316;55.976;37.140;2023-11-21T05:15:42;7.95;;;3.95;;
40609;SDS011;26316;55.976;37.140;2023-11-21T05:18:08;4.70;;;4.03;;
40609;SDS011;26316;55.976;37.140;2023-11-21T05:20:34;5.20;;;4.10;;
40609;SDS011;26316;55.976;37.140;2023-11-21T05:23:00;4.75;;;3.83;;
40609;SDS011;26316;55.976;37.140;2023-11-21T05:25:25;5.30;;;3.65;;
40609;SDS011;26316;55.976;37.140;2023-11-21T05:27:51;4.97;;;3.90;;
40609;SDS011;26316;55.976;37.140;2023-11-21T05:30:18;6.40;;;3.95;;
40609;SDS011;26316;55.976;37.140;2023-11-21T05:32:44;4.55;;;3.95;;
40609;SDS011;26316;55.976;37.140;2023-11-21T05:35:11;5.78;;;4.00;;
40609;SDS011;26316;55.976;37.140;2023-11-21T05:37:41;6.45;;;3.92;;
40609;SDS011;26316;55.976;37.140;2023-11-21T05:40:07;4.53;;;3.85;;
40609;SDS011;26316;55.976;37.140;2023-11-21T05:42:34;6.78;;;4.32;;
40609;SDS011;26316;55.976;37.140;2023-11-21T05:45:00;5.85;;;4.30;;
40609;SDS011;26316;55.976;37.140;2023-11-21T05:47:40;5.22;;;4.10;;
40609;SDS011;26316;55.976;37.140;2023-11-21T05:50:07;4.82;;;4.30;;
40609;SDS011;26316;55.976;37.140;2023-11-21T05:52:40;5.28;;;4.28;;
40609;SDS011;26316;55.976;37.140;2023-11-21T05:55:06;5.90;;;2.85;;
40609;SDS011;26316;55.976;37.140;2023-11-21T05:57:33;6.75;;;4.30;;
40609;SDS011;26316;55.976;37.140;2023-11-21T06:02:36;8.02;;;4.30;;
40609;SDS011;26316;55.976;37.140;2023-11-21T06:05:09;5.43;;;4.20;;
40609;SDS011;26316;55.976;37.140;2023-11-21T06:07:35;4.60;;;3.97;;
40609;SDS011;26316;55.976;37.140;2023-11-21T06:10:03;6.05;;;4.47;;
40609;SDS011;26316;55.976;37.140;2023-11-21T06:12:32;4.75;;;3.92;;
40609;SDS011;26316;55.976;37.140;2023-11-21T06:15:01;4.18;;;3.83;;
40609;SDS011;26316;55.976;37.140;2023-11-21T06:17:30;4.63;;;4.03;;
40609;SDS011;26316;55.976;37.140;2023-11-21T06:19:57;9.02;;;4.57;;
40609;SDS011;26316;55.976;37.140;2023-11-21T06:22:22;11.05;;;4.60;;
40609;SDS011;26316;55.976;37.140;2023-11-21T06:24:48;8.23;;;4.25;;
40609;SDS011;26316;55.976;37.140;2023-11-21T06:27:14;6.50;;;3.90;;
40609;SDS011;26316;55.976;37.140;2023-11-21T06:29:41;8.13;;;4.63;;
40609;SDS011;26316;55.976;37.140;2023-11-21T06:32:07;4.82;;;4.20;;
40609;SDS011;26316;55.976;37.140;2023-11-21T06:34:33;7.38;;;4.60;;
40609;SDS011;26316;55.976;37.140;2023-11-21T06:36:59;6.05;;;4.70;;
40609;SDS011;26316;55.976;37.140;2023-11-21T06:39:25;10.55;;;5.03;;
40609;SDS011;26316;55.976;37.140;2023-11-21T06:41:50;5.05;;;4.32;;
40609;SDS011;26316;55.976;37.140;2023-11-21T06:44:16;5.85;;;5.07;;
40609;SDS011;26316;55.976;37.140;2023-11-21T06:46:42;7.45;;;4.68;;
40609;SDS011;26316;55.976;37.140;2023-11-21T06:49:08;6.65;;;4.20;;
40609;SDS011;26316;55.976;37.140;2023-11-21T06:51:34;7.28;;;4.72;;
40609;SDS011;26316;55.976;37.140;2023-11-21T06:53:59;5.05;;;4.38;;
40609;SDS011;26316;55.976;37.140;2023-11-21T06:56:25;7.40;;;4.70;;
40609;SDS011;26316;55.976;37.140;2023-11-21T06:58:51;5.32;;;4.22;;
40609;SDS011;26316;55.976;37.140;2023-11-21T07:01:20;6.43;;;4.97;;
40609;SDS011;26316;55.976;37.140;2023-11-21T07:03:46;5.70;;;5.13;;
40609;SDS011;26316;55.976;37.140;2023-11-21T07:06:11;7.90;;;5.10;;
40609;SDS011;26316;55.976;37.140;2023-11-21T07:08:37;5.88;;;5.30;;
40609;SDS011;26316;55.976;37.140;2023-11-21T07:11:03;5.65;;;5.15;;
40609;SDS011;26316;55.976;37.140;2023-11-21T07:13:30;9.00;;;5.25;;
40609;SDS011;26316;55.976;37.140;2023-11-21T07:15:57;6.60;;;5.32;;
40609;SDS011;26316;55.976;37.140;2023-11-21T07:18:24;6.90;;;5.38;;
40609;SDS011;26316;55.976;37.140;2023-11-21T07:20:49;5.75;;;5.00;;
40609;SDS011;26316;55.976;37.140;2023-11-21T07:23:15;5.68;;;5.07;;
40609;SDS011;26316;55.976;37.140;2023-11-21T07:25:41;7.38;;;5.30;;
40609;SDS011;26316;55.976;37.140;2023-11-21T07:28:08;9.35;;;5.88;;
40609;SDS011;26316;55.976;37.140;2023-11-21T07:30:34;5.18;;;4.68;;
40609;SDS011;26316;55.976;37.140;2023-11-21T07:33:00;6.50;;;5.40;;
40609;SDS011;26316;55.976;37.140;2023-11-21T07:35:26;6.05;;;4.85;;
40609;SDS011;26316;55.976;37.140;2023-11-21T07:37:51;5.38;;;4.80;;
40609;SDS011;26316;55.976;37.140;2023-11-21T07:40:17;6.38;;;4.70;;
40609;SDS011;26316;55.976;37.140;2023-11-21T07:42:43;7.15;;;5.05;;
40609;SDS011;26316;55.976;37.140;2023-11-21T07:45:10;6.22;;;4.78;;
40609;SDS011;26316;55.976;37.140;2023-11-21T07:47:35;5.47;;;4.90;;
40609;SDS011;26316;55.976;37.140;2023-11-21T07:50:02;5.25;;;4.75;;
40609;SDS011;26316;55.976;37.140;2023-11-21T07:52:29;5.85;;;5.25;;
40609;SDS011;26316;55.976;37.140;2023-11-21T07:54:55;8.55;;;5.20;;
40609;SDS011;26316;55.976;37.140;2023-11-21T07:57:21;5.50;;;4.97;;
40609;SDS011;26316;55.976;37.140;2023-11-21T07:59:47;5.55;;;4.93;;
40609;SDS011;26316;55.976;37.140;2023-11-21T08:02:13;6.38;;;4.88;;
40609;SDS011;26316;55.976;37.140;2023-11-21T08:04:38;8.60;;;5.38;;
40609;SDS011;26316;55.976;37.140;2023-11-21T08:07:04;5.95;;;5.35;;
40609;SDS011;26316;55.976;37.140;2023-11-21T08:09:30;7.53;;;4.80;;
40609;SDS011;26316;55.976;37.140;2023-11-21T08:11:56;4.85;;;4.40;;
40609;SDS011;26316;55.976;37.140;2023-11-21T08:14:22;6.45;;;4.47;;
40609;SDS011;26316;55.976;37.140;2023-11-21T08:16:50;6.30;;;4.07;;
40609;SDS011;26316;55.976;37.140;2023-11-21T08:19:16;4.57;;;4.18;;
40609;SDS011;26316;55.976;37.140;2023-11-21T08:21:43;6.32;;;4.35;;
40609;SDS011;26316;55.976;37.140;2023-11-21T08:24:10;4.50;;;4.05;;
40609;SDS011;26316;55.976;37.140;2023-11-21T08:26:36;7.78;;;4.13;;
40609;SDS011;26316;55.976;37.140;2023-11-21T08:29:03;4.90;;;4.45;;
40609;SDS011;26316;55.976;37.140;2023-11-21T08:31:28;6.32;;;4.18;;
40609;SDS011;26316;55.976;37.140;2023-11-21T08:33:55;6.55;;;4.15;;
40609;SDS011;26316;55.976;37.140;2023-11-21T08:36:24;6.10;;;4.40;;
40609;SDS011;26316;55.976;37.140;2023-11-21T08:38:50;9.55;;;4.40;;
40609;SDS011;26316;55.976;37.140;2023-11-21T08:41:17;6.07;;;3.90;;
40609;SDS011;26316;55.976;37.140;2023-11-21T08:43:44;5.97;;;3.70;;
40609;SDS011;26316;55.976;37.140;2023-11-21T08:46:10;5.57;;;3.42;;
40609;SDS011;26316;55.976;37.140;2023-11-21T08:48:36;5.00;;;3.75;;
40609;SDS011;26316;55.976;37.140;2023-11-21T08:51:02;4.43;;;3.40;;
40609;SDS011;26316;55.976;37.140;2023-11-21T08:53:29;7.40;;;4.00;;
40609;SDS011;26316;55.976;37.140;2023-11-21T08:55:56;5.88;;;3.83;;
40609;SDS011;26316;55.976;37.140;2023-11-21T08:58:22;3.95;;;3.60;;
40609;SDS011;26316;55.976;37.140;2023-11-21T09:00:48;9.60;;;3.90;;
40609;SDS011;26316;55.976;37.140;2023-11-21T09:03:13;6.93;;;4.15;;
40609;SDS011;26316;55.976;37.140;2023-11-21T09:05:39;13.70;;;4.40;;
40609;SDS011;26316;55.976;37.140;2023-11-21T09:08:05;6.60;;;3.63;;
40609;SDS011;26316;55.976;37.140;2023-11-21T09:10:33;5.55;;;3.72;;
40609;SDS011;26316;55.976;37.140;2023-11-21T09:13:02;4.43;;;3.85;;
40609;SDS011;26316;55.976;37.140;2023-11-21T09:15:28;5.45;;;4.40;;
40609;SDS011;26316;55.976;37.140;2023-11-21T09:17:54;6.03;;;4.07;;
40609;SDS011;26316;55.976;37.140;2023-11-21T09:20:19;6.22;;;3.88;;
40609;SDS011;26316;55.976;37.140;2023-11-21T09:22:48;14.40;;;4.47;;
40609;SDS011;26316;55.976;37.140;2023-11-21T09:25:14;8.90;;;4.07;;
40609;SDS011;26316;55.976;37.140;2023-11-21T09:27:40;5.28;;;3.97;;
40609;SDS011;26316;55.976;37.140;2023-11-21T09:30:06;4.60;;;4.00;;
40609;SDS011;26316;55.976;37.140;2023-11-21T09:32:35;6.93;;;4.80;;
40609;SDS011;26316;55.976;37.140;2023-11-21T09:35:03;13.80;;;4.55;;
40609;SDS011;26316;55.976;37.140;2023-11-21T09:37:30;6.28;;;4.13;;
40609;SDS011;26316;55.976;37.140;2023-11-21T09:39:56;7.05;;;4.70;;
40609;SDS011;26316;55.976;37.140;2023-11-21T09:42:26;5.90;;;4.68;;
40609;SDS011;26316;55.976;37.140;2023-11-21T09:45:11;5.93;;;4.70;;
40609;SDS011;26316;55.976;37.140;2023-11-21T09:47:44;8.90;;;4.75;;
40609;SDS011;26316;55.976;37.140;2023-11-21T09:50:10;5.70;;;4.53;;
40609;SDS011;26316;55.976;37.140;2023-11-21T09:52:54;6.63;;;4.80;;
40609;SDS011;26316;55.976;37.140;2023-11-21T09:55:21;7.63;;;3.95;;
40609;SDS011;26316;55.976;37.140;2023-11-21T09:57:47;7.20;;;4.45;;
40609;SDS011;26316;55.976;37.140;2023-11-21T10:00:16;4.90;;;4.20;;
40609;SDS011;26316;55.976;37.140;2023-11-21T10:02:49;5.95;;;4.20;;
40609;SDS011;26316;55.976;37.140;2023-11-21T10:05:15;8.15;;;4.50;;
40609;SDS011;26316;55.976;37.140;2023-11-21T10:07:45;5.72;;;4.38;;
40609;SDS011;26316;55.976;37.140;2023-11-21T10:10:12;4.93;;;3.80;;
40609;SDS011;26316;55.976;37.140;2023-11-21T10:12:39;5.50;;;4.15;;
40609;SDS011;26316;55.976;37.140;2023-11-21T10:15:07;7.60;;;4.32;;
40609;SDS011;26316;55.976;37.140;2023-11-21T10:17:35;9.43;;;3.95;;
40609;SDS011;26316;55.976;37.140;2023-11-21T10:20:08;8.27;;;4.18;;
40609;SDS011;26316;55.976;37.140;2023-11-21T10:22:40;7.88;;;4.55;;
40609;SDS011;26316;55.976;37.140;2023-11-21T10:25:10;4.40;;;4.00;;
40609;SDS011;26316;55.976;37.140;2023-11-21T10:27:36;4.35;;;3.95;;
40609;SDS011;26316;55.976;37.140;2023-11-21T10:30:05;5.18;;;4.15;;
40609;SDS011;26316;55.976;37.140;2023-11-21T10:32:31;8.88;;;3.95;;
40609;SDS011;26316;55.976;37.140;2023-11-21T10:34:58;3.83;;;3.17;;
40609;SDS011;26316;55.976;37.140;2023-11-21T10:37:32;4.22;;;3.65;;
40609;SDS011;26316;55.976;37.140;2023-11-21T10:39:58;4.25;;;3.50;;
40609;SDS011;26316;55.976;37.140;2023-11-21T10:42:24;3.60;;;3.30;;
40609;SDS011;26316;55.976;37.140;2023-11-21T10:44:50;3.60;;;2.97;;
40609;SDS011;26316;55.976;37.140;2023-11-21T10:47:17;3.70;;;3.25;;
40609;SDS011;26316;55.976;37.140;2023-11-21T10:49:44;3.83;;;3.35;;
40609;SDS011;26316;55.976;37.140;2023-11-21T10:52:12;5.47;;;3.83;;
40609;SDS011;26316;55.976;37.140;2023-11-21T10:57:11;4.30;;;3.33;;
40609;SDS011;26316;55.976;37.140;2023-11-21T10:59:40;4.20;;;3.67;;
40609;SDS011;26316;55.976;37.140;2023-11-21T11:02:18;3.70;;;3.03;;
40609;SDS011;26316;55.976;37.140;2023-11-21T11:04:53;7.07;;;3.38;;
40609;SDS011;26316;55.976;37.140;2023-11-21T11:07:25;4.35;;;3.53;;
40609;SDS011;26316;55.976;37.140;2023-11-21T11:09:53;3.97;;;3.47;;
40609;SDS011;26316;55.976;37.140;2023-11-21T11:12:20;5.15;;;3.63;;
40609;SDS011;26316;55.976;37.140;2023-11-21T11:14:46;6.20;;;3.38;;
40609;SDS011;26316;55.976;37.140;2023-11-21T11:17:13;7.93;;;5.20;;
40609;SDS011;26316;55.976;37.140;2023-11-21T11:19:39;9.93;;;9.02;;
40609;SDS011;26316;55.976;37.140;2023-11-21T11:22:08;10.40;;;9.43;;
40609;SDS011;26316;55.976;37.140;2023-11-21T11:27:38;7.13;;;6.53;;
40609;SDS011;26316;55.976;37.140;2023-11-21T11:36:00;10.23;;;9.23;;
40609;SDS011;26316;55.976;37.140;2023-11-21T11:38:33;9.52;;;8.48;;
40609;SDS011;26316;55.976;37.140;2023-11-21T11:41:01;8.10;;;7.22;;
40609;SDS011;26316;55.976;37.140;2023-11-21T11:43:29;11.38;;;7.20;;
40609;SDS011;26316;55.976;37.140;2023-11-21T11:46:02;5.63;;;5.13;;
40609;SDS011;26316;55.976;37.140;2023-11-21T11:48:29;8.35;;;5.65;;
40609;SDS011;26316;55.976;37.140;2023-11-21T11:51:01;6.47;;;5.13;;
40609;SDS011;26316;55.976;37.140;2023-11-21T11:53:37;5.65;;;5.05;;
40609;SDS011;26316;55.976;37.140;2023-11-21T11:56:27;5.63;;;4.65;;
40609;SDS011;26316;55.976;37.140;2023-11-21T11:58:57;5.85;;;4.25;;
40609;SDS011;26316;55.976;37.140;2023-11-21T12:01:25;5.93;;;5.30;;
40609;SDS011;26316;55.976;37.140;2023-11-21T12:06:36;6.00;;;5.43;;
40609;SDS011;26316;55.976;37.140;2023-11-21T12:09:02;5.20;;;4.70;;
40609;SDS011;26316;55.976;37.140;2023-11-21T12:11:33;5.82;;;5.32;;
40609;SDS011;26316;55.976;37.140;2023-11-21T12:14:01;5.45;;;4.65;;
40609;SDS011;26316;55.976;37.140;2023-11-21T12:16:27;5.55;;;5.00;;
40609;SDS011;26316;55.976;37.140;2023-11-21T12:18:53;3.97;;;3.65;;
40609;SDS011;26316;55.976;37.140;2023-11-21T12:21:20;8.48;;;4.75;;
40609;SDS011;26316;55.976;37.140;2023-11-21T12:23:46;5.10;;;4.57;;
40609;SDS011;26316;55.976;37.140;2023-11-21T12:26:13;6.05;;;5.10;;
40609;SDS011;26316;55.976;37.140;2023-11-21T12:28:39;5.40;;;4.68;;
40609;SDS011;26316;55.976;37.140;2023-11-21T12:31:05;4.72;;;4.15;;
40609;SDS011;26316;55.976;37.140;2023-11-21T12:33:34;5.97;;;4.88;;
40609;SDS011;26316;55.976;37.140;2023-11-21T12:36:00;4.70;;;4.30;;
40609;SDS011;26316;55.976;37.140;2023-11-21T12:38:33;5.75;;;3.97;;
40609;SDS011;26316;55.976;37.140;2023-11-21T12:41:00;5.05;;;3.95;;
40609;SDS011;26316;55.976;37.140;2023-11-21T12:43:26;7.68;;;4.10;;
40609;SDS011;26316;55.976;37.140;2023-11-21T12:46:04;6.22;;;4.97;;
40609;SDS011;26316;55.976;37.140;2023-11-21T12:48:33;5.30;;;4.80;;
40609;SDS011;26316;55.976;37.140;2023-11-21T12:50:58;6.65;;;5.10;;
40609;SDS011;26316;55.976;37.140;2023-11-21T12:53:25;5.75;;;5.00;;
40609;SDS011;26316;55.976;37.140;2023-11-21T12:55:51;6.85;;;4.35;;
40609;SDS011;26316;55.976;37.140;2023-11-21T12:58:17;7.15;;;4.63;;
40609;SDS011;26316;55.976;37.140;2023-11-21T13:00:46;5.07;;;4.43;;
40609;SDS011;26316;55.976;37.140;2023-11-21T13:03:13;6.75;;;4.38;;
40609;SDS011;26316;55.976;37.140;2023-11-21T13:05:51;8.35;;;4.47;;
40609;SDS011;26316;55.976;37.140;2023-11-21T13:08:19;5.85;;;4.63;;
40609;SDS011;26316;55.976;37.140;2023-11-21T13:10:52;6.13;;;4.22;;
40609;SDS011;26316;55.976;37.140;2023-11-21T13:13:22;7.60;;;4.55;;
40609;SDS011;26316;55.976;37.140;2023-11-21T13:15:53;4.55;;;4.15;;
40609;SDS011;26316;55.976;37.140;2023-11-21T13:18:21;4.82;;;4.03;;
40609;SDS011;26316;55.976;37.140;2023-11-21T13:20:48;5.75;;;4.43;;
40609;SDS011;26316;55.976;37.140;2023-11-21T13:23:15;6.63;;;4.60;;
40609;SDS011;26316;55.976;37.140;2023-11-21T13:25:44;5.50;;;4.40;;
40609;SDS011;26316;55.976;37.140;2023-11-21T13:28:11;5.75;;;4.43;;
40609;SDS011;26316;55.976;37.140;2023-11-21T13:30:37;4.90;;;4.45;;
40609;SDS011;26316;55.976;37.140;2023-11-21T13:33:05;6.80;;;4.22;;
40609;SDS011;26316;55.976;37.140;2023-11-21T13:35:33;7.57;;;4.55;;
40609;SDS011;26316;55.976;37.140;2023-11-21T13:40:33;5.90;;;4.50;;
40609;SDS011;26316;55.976;37.140;2023-11-21T13:43:05;5.18;;;3.90;;
40609;SDS011;26316;55.976;37.140;2023-11-21T13:45:35;6.70;;;4.25;;
40609;SDS011;26316;55.976;37.140;2023-11-21T13:48:08;6.30;;;4.03;;
40609;SDS011;26316;55.976;37.140;2023-11-21T13:50:36;7.88;;;4.32;;
40609;SDS011;26316;55.976;37.140;2023-11-21T13:53:03;7.28;;;4.25;;
40609;SDS011;26316;55.976;37.140;2023-11-21T13:55:46;6.13;;;4.32;;
40609;SDS011;26316;55.976;37.140;2023-11-21T13:58:13;5.15;;;4.18;;
40609;SDS011;26316;55.976;37.140;2023-11-21T14:00:45;4.75;;;4.28;;
40609;SDS011;26316;55.976;37.140;2023-11-21T14:03:11;5.00;;;4.25;;
40609;SDS011;26316;55.976;37.140;2023-11-21T14:05:49;7.90;;;3.60;;
40609;SDS011;26316;55.976;37.140;2023-11-21T14:08:17;7.00;;;4.43;;
40609;SDS011;26316;55.976;37.140;2023-11-21T14:13:23;5.63;;;4.13;;
40609;SDS011;26316;55.976;37.140;2023-11-21T14:15:50;4.57;;;4.18;;
40609;SDS011;26316;55.976;37.140;2023-11-21T14:20:52;3.55;;;3.25;;
40609;SDS011;26316;55.976;37.140;2023-11-21T14:23:18;4.82;;;3.88;;
40609;SDS011;26316;55.976;37.140;2023-11-21T14:25:44;4.22;;;3.83;;
40609;SDS011;26316;55.976;37.140;2023-11-21T14:28:09;5.60;;;3.83;;
40609;SDS011;26316;55.976;37.140;2023-11-21T14:30:37;4.32;;;3.70;;
40609;SDS011;26316;55.976;37.140;2023-11-21T14:33:05;4.35;;;3.92;;
40609;SDS011;26316;55.976;37.140;2023-11-21T14:35:33;4.93;;;3.80;;
40609;SDS011;26316;55.976;37.140;2023-11-21T14:37:59;4.82;;;4.32;;
40609;SDS011;26316;55.976;37.140;2023-11-21T14:40:26;6.78;;;3.80;;
40609;SDS011;26316;55.976;37.140;2023-11-21T14:42:56;5.07;;;3.70;;
40609;SDS011;26316;55.976;37.140;2023-11-21T14:45:22;5.88;;;4.43;;
40609;SDS011;26316;55.976;37.140;2023-11-21T14:47:51;4.43;;;3.42;;
40609;SDS011;26316;55.976;37.140;2023-11-21T14:50:37;4.40;;;3.90;;
40609;SDS011;26316;55.976;37.140;2023-11-21T14:53:09;6.53;;;4.63;;
40609;SDS011;26316;55.976;37.140;2023-11-21T14:55:38;7.97;;;4.10;;
40609;SDS011;26316;55.976;37.140;2023-11-21T14:58:16;6.60;;;4.18;;
40609;SDS011;26316;55.976;37.140;2023-11-21T15:00:55;4.80;;;3.90;;